createdAt,value
2023-04-28T00:03:14.657Z,21.10
2023-04-28T00:06:41.668Z,20.00
2023-04-28T00:10:10.856Z,19.20
2023-04-28T00:13:37.717Z,19.30
2023-04-28T00:17:04.904Z,18.40
2023-04-28T00:20:32.438Z,18.60
2023-04-28T00:23:59.490Z,19.80
2023-04-28T00:27:26.493Z,18.40
2023-04-28T00:30:53.406Z,18.90
2023-04-28T00:34:20.212Z,18.30
2023-04-28T00:37:47.173Z,18.50
2023-04-28T00:41:15.524Z,18.00
2023-04-28T00:44:42.954Z,18.30
2023-04-28T00:48:10.217Z,18.70
2023-04-28T00:51:37.345Z,18.90
2023-04-28T00:55:05.167Z,19.10
2023-04-28T00:58:32.381Z,19.30
2023-04-28T01:02:00.910Z,19.70
2023-04-28T01:05:29.719Z,19.50
2023-04-28T01:08:57.142Z,19.20
2023-04-28T01:12:23.950Z,20.50
2023-04-28T01:15:53.710Z,19.30
2023-04-28T01:19:23.505Z,19.80
2023-04-28T01:22:51.523Z,17.90
2023-04-28T01:26:19.181Z,20.50
2023-04-28T01:29:46.106Z,20.60
2023-04-28T01:33:13.298Z,20.70
2023-04-28T01:36:40.088Z,21.70
2023-04-28T01:40:09.101Z,22.40
2023-04-28T01:47:02.200Z,27.20
2023-04-28T01:50:29.208Z,30.90
2023-04-28T01:53:56.776Z,32.10
2023-04-28T01:57:24.502Z,33.00
2023-04-28T02:00:51.865Z,34.70
2023-04-28T02:04:19.841Z,40.90
2023-04-28T02:07:46.832Z,45.10
2023-04-28T02:11:13.878Z,37.70
2023-04-28T02:14:40.997Z,34.00
2023-04-28T02:18:08.587Z,32.80
2023-04-28T02:21:39.844Z,41.50
2023-04-28T02:25:08.541Z,47.30
2023-04-28T02:28:38.063Z,48.20
2023-04-28T02:32:05.747Z,52.00
2023-04-28T02:35:32.598Z,54.00
2023-04-28T02:38:59.548Z,55.00
2023-04-28T02:42:27.244Z,51.10
2023-04-28T02:45:54.503Z,48.70
2023-04-28T02:49:21.632Z,46.40
2023-04-28T02:52:49.177Z,47.10
2023-04-28T02:56:16.369Z,49.80
2023-04-28T02:59:43.482Z,49.60
2023-04-28T03:03:10.799Z,46.80
2023-04-28T03:06:38.145Z,49.20
2023-04-28T03:10:05.816Z,49.60
2023-04-28T03:13:33.323Z,47.90
2023-04-28T03:17:00.580Z,47.60
2023-04-28T03:20:28.046Z,46.50
2023-04-28T03:23:55.946Z,41.20
2023-04-28T03:27:23.733Z,44.50
2023-04-28T03:30:52.194Z,45.50
2023-04-28T03:34:19.679Z,41.30
2023-04-28T03:37:46.603Z,43.00
2023-04-28T03:41:13.631Z,43.70
2023-04-28T03:44:59.278Z,45.30
2023-04-28T03:48:26.523Z,42.50
2023-04-28T03:51:53.781Z,41.10
2023-04-28T03:55:20.792Z,38.50
2023-04-28T03:58:47.911Z,35.70
2023-04-28T04:02:15.247Z,38.40
2023-04-28T04:05:43.765Z,36.50
2023-04-28T04:09:11.353Z,40.50
2023-04-28T04:12:39.262Z,38.20
2023-04-28T04:16:07.787Z,39.40
2023-04-28T04:19:35.928Z,40.10
2023-04-28T04:23:03.626Z,42.60
2023-04-28T04:26:30.572Z,41.50
2023-04-28T04:29:58.567Z,39.30
2023-04-28T04:33:27.004Z,43.80
2023-04-28T04:36:54.207Z,40.40
2023-04-28T04:40:22.096Z,37.40
2023-04-28T04:43:49.654Z,35.60
2023-04-28T04:47:17.143Z,32.80
2023-04-28T04:50:45.235Z,37.50
2023-04-28T04:54:12.942Z,38.10
2023-04-28T04:57:43.148Z,43.40
2023-04-28T05:01:28.798Z,37.50
2023-04-28T05:05:08.268Z,35.80
2023-04-28T05:08:44.097Z,34.60
2023-04-28T05:12:11.870Z,32.00
2023-04-28T05:15:39.252Z,31.90
2023-04-28T05:19:27.095Z,30.30
2023-04-28T05:22:54.990Z,27.10
2023-04-28T05:26:22.750Z,27.10
2023-04-28T05:29:53.635Z,26.20
2023-04-28T05:33:20.662Z,25.40
2023-04-28T05:36:47.914Z,24.30
2023-04-28T05:40:15.525Z,24.90
2023-04-28T05:43:42.757Z,25.50
2023-04-28T05:47:10.722Z,24.90
2023-04-28T05:50:39.124Z,24.10
2023-04-28T05:54:06.760Z,24.50
2023-04-28T05:57:45.700Z,24.50
2023-04-28T06:01:19.644Z,27.20
2023-04-28T06:04:47.066Z,21.90
2023-04-28T06:08:15.131Z,21.50
2023-04-28T06:11:41.998Z,22.40
2023-04-28T06:15:10.552Z,20.00
2023-04-28T06:18:38.057Z,17.80
2023-04-28T06:22:05.592Z,14.50
2023-04-28T06:25:32.704Z,11.90
2023-04-28T06:28:59.758Z,11.20
2023-04-28T06:32:26.865Z,11.10
2023-04-28T06:35:54.380Z,11.10
2023-04-28T06:39:21.624Z,9.90
2023-04-28T06:42:48.494Z,10.90
2023-04-28T06:46:20.850Z,11.70
2023-04-28T06:49:50.119Z,11.20
2023-04-28T06:53:17.039Z,10.00
2023-04-28T06:56:43.894Z,10.40
2023-04-28T07:00:13.016Z,9.70
2023-04-28T07:03:40.268Z,8.30
2023-04-28T07:07:08.376Z,7.30
2023-04-28T07:10:35.436Z,6.40
2023-04-28T07:14:02.440Z,6.20
2023-04-28T07:17:29.449Z,7.10
2023-04-28T07:20:57.067Z,7.00
2023-04-28T07:24:24.699Z,6.70
2023-04-28T07:27:51.612Z,5.80
2023-04-28T07:31:18.833Z,6.00
2023-04-28T07:34:45.820Z,5.80
2023-04-28T07:38:13.557Z,4.40
2023-04-28T07:41:41.105Z,5.70
2023-04-28T07:45:10.042Z,6.20
2023-04-28T07:48:37.407Z,5.30
2023-04-28T07:52:04.590Z,5.10
2023-04-28T07:55:31.944Z,5.50
2023-04-28T07:58:59.230Z,4.20
2023-04-28T08:02:27.582Z,4.60
2023-04-28T08:05:54.874Z,6.90
2023-04-28T08:09:22.256Z,5.60
2023-04-28T08:12:49.609Z,5.50
2023-04-28T08:16:16.799Z,5.20
2023-04-28T08:19:46.274Z,5.40
2023-04-28T08:23:13.586Z,5.40
2023-04-28T08:26:41.091Z,5.60
2023-04-28T08:30:10.145Z,5.40
2023-04-28T08:33:37.190Z,6.40
2023-04-28T08:37:04.204Z,5.90
2023-04-28T08:40:32.119Z,6.50
2023-04-28T08:43:59.652Z,5.90
2023-04-28T08:47:32.682Z,5.70
2023-04-28T08:51:03.034Z,6.50
2023-04-28T08:54:33.210Z,7.00
2023-04-28T08:58:03.292Z,6.70
2023-04-28T09:01:30.245Z,7.50
2023-04-28T09:04:57.917Z,8.10
2023-04-28T09:08:25.158Z,7.20
2023-04-28T09:11:58.648Z,7.30
2023-04-28T09:15:36.252Z,9.20
2023-04-28T09:19:03.243Z,6.60
2023-04-28T09:22:33.187Z,7.40
2023-04-28T09:26:02.603Z,7.50
2023-04-28T09:29:29.956Z,7.50
2023-04-28T09:33:10.701Z,8.30
2023-04-28T09:36:40.258Z,7.50
2023-04-28T09:40:11.881Z,7.50
2023-04-28T09:43:39.891Z,7.80
2023-04-28T09:47:25.746Z,9.00
2023-04-28T09:50:57.788Z,8.30
2023-04-28T09:54:29.756Z,8.30
2023-04-28T09:58:00.730Z,8.50
2023-04-28T10:01:35.177Z,9.00
2023-04-28T10:05:03.901Z,9.40
2023-04-28T10:08:32.505Z,8.80
2023-04-28T10:12:05.614Z,8.60
2023-04-28T10:15:34.127Z,7.90
2023-04-28T10:19:03.471Z,8.40
2023-04-28T10:22:53.652Z,8.70
2023-04-28T10:26:23.826Z,9.20
2023-04-28T10:29:54.043Z,9.10
2023-04-28T10:33:28.461Z,8.90
2023-04-28T10:36:57.354Z,9.90
2023-04-28T10:40:38.696Z,7.90
2023-04-28T10:44:45.072Z,9.50
2023-04-28T10:48:12.487Z,8.30
2023-04-28T10:51:39.397Z,9.90
2023-04-28T10:55:36.356Z,9.40
2023-04-28T10:59:23.582Z,9.90
2023-04-28T11:02:50.691Z,9.90
2023-04-28T11:06:26.677Z,9.00
2023-04-28T11:09:54.843Z,9.70
2023-04-28T11:13:34.489Z,8.10
2023-04-28T11:17:03.473Z,9.80
2023-04-28T11:20:31.357Z,9.40
2023-04-28T11:23:58.849Z,10.40
2023-04-28T11:27:28.636Z,8.50
2023-04-28T11:31:19.165Z,9.40
2023-04-28T11:34:54.392Z,8.80
2023-04-28T11:38:21.802Z,7.90
2023-04-28T11:41:50.494Z,8.80
2023-04-28T11:45:18.742Z,8.80
2023-04-28T11:48:47.063Z,9.90
2023-04-28T11:52:17.997Z,10.80
2023-04-28T11:55:45.693Z,9.50
2023-04-28T11:59:15.530Z,11.10
2023-04-28T12:02:44.224Z,8.30
2023-04-28T12:06:12.840Z,9.70
2023-04-28T12:09:42.995Z,9.80
2023-04-28T12:13:19.767Z,10.30
2023-04-28T12:16:48.590Z,10.90
2023-04-28T12:20:37.393Z,10.70
2023-04-28T12:24:20.104Z,9.90
2023-04-28T12:28:03.920Z,10.00
2023-04-28T12:31:31.121Z,10.40
2023-04-28T12:34:58.152Z,9.00
2023-04-28T12:38:25.072Z,9.50
2023-04-28T12:41:52.028Z,10.00
2023-04-28T12:45:19.158Z,10.30
2023-04-28T12:48:46.239Z,9.60
2023-04-28T12:52:13.673Z,9.00
2023-04-28T12:55:41.144Z,8.30
2023-04-28T12:59:08.226Z,7.70
2023-04-28T13:02:35.562Z,7.70
2023-04-28T13:06:03.138Z,9.70
2023-04-28T13:09:30.075Z,9.50
2023-04-28T13:12:56.869Z,9.60
2023-04-28T13:16:25.172Z,9.00
2023-04-28T13:19:52.479Z,9.20
2023-04-28T13:23:19.447Z,8.40
2023-04-28T13:26:46.430Z,8.10
2023-04-28T13:30:15.135Z,8.30
2023-04-28T13:33:42.376Z,8.20
2023-04-28T13:37:09.416Z,6.80
2023-04-28T13:40:36.608Z,8.10
2023-04-28T13:44:03.580Z,5.90
2023-04-28T13:47:32.748Z,7.00
2023-04-28T13:50:59.830Z,5.90
2023-04-28T13:54:26.983Z,5.20
2023-04-28T13:57:54.965Z,6.50
2023-04-28T14:01:21.815Z,8.80
2023-04-28T14:04:51.112Z,6.40
2023-04-28T14:08:20.490Z,6.20
2023-04-28T14:11:47.813Z,5.90
2023-04-28T14:15:15.108Z,6.30
2023-04-28T14:18:42.103Z,5.30
2023-04-28T14:22:08.949Z,5.00
2023-04-28T14:25:35.959Z,5.60
2023-04-28T14:29:03.134Z,5.00
2023-04-28T14:32:30.190Z,4.90
2023-04-28T14:35:57.344Z,5.30
2023-04-28T14:39:24.409Z,5.60
2023-04-28T14:42:51.883Z,5.50
2023-04-28T14:46:23.012Z,5.80
2023-04-28T14:49:52.762Z,4.70
2023-04-28T14:53:19.748Z,5.20
2023-04-28T14:56:46.582Z,5.80
2023-04-28T15:00:15.950Z,6.00
2023-04-28T15:03:44.202Z,5.30
2023-04-28T15:07:11.654Z,5.50
2023-04-28T15:10:41.820Z,5.50
2023-04-28T15:14:08.700Z,5.20
2023-04-28T15:17:35.755Z,5.70
2023-04-28T15:21:02.938Z,5.00
2023-04-28T15:24:30.239Z,5.40
2023-04-28T15:27:57.321Z,6.30
2023-04-28T15:31:25.640Z,5.70
2023-04-28T15:34:53.075Z,6.10
2023-04-28T15:38:19.972Z,5.40
2023-04-28T15:41:46.853Z,5.80
2023-04-28T15:45:15.297Z,6.70
2023-04-28T15:48:42.451Z,5.30
2023-04-28T15:52:09.445Z,5.10
2023-04-28T15:55:36.602Z,5.80
2023-04-28T15:59:04.467Z,7.80
2023-04-28T16:02:32.544Z,6.50
2023-04-28T16:06:01.270Z,6.50
2023-04-28T16:09:28.192Z,6.90
2023-04-28T16:12:55.191Z,5.90
2023-04-28T16:16:22.199Z,6.90
2023-04-28T16:19:49.178Z,7.30
2023-04-28T16:23:16.822Z,6.90
2023-04-28T16:26:44.055Z,6.10
2023-04-28T16:30:12.667Z,7.00
2023-04-28T16:33:39.820Z,6.70
2023-04-28T16:37:08.652Z,6.80
2023-04-28T16:40:35.924Z,6.60
2023-04-28T16:44:03.184Z,6.70
2023-04-28T16:47:32.246Z,6.40
2023-04-28T16:51:01.078Z,5.90
2023-04-28T16:54:32.344Z,6.30
2023-04-28T16:58:01.648Z,6.20
2023-04-28T17:01:32.421Z,6.70
2023-04-28T17:05:09.498Z,6.70
2023-04-28T17:08:46.693Z,7.00
2023-04-28T17:12:21.514Z,7.00
2023-04-28T17:16:02.747Z,6.70
2023-04-28T17:19:33.365Z,6.70
2023-04-28T17:23:02.490Z,6.60
2023-04-28T17:26:32.498Z,7.30
2023-04-28T17:29:59.395Z,7.00
2023-04-28T17:33:27.644Z,6.60
2023-04-28T17:36:55.721Z,6.90
2023-04-28T17:40:24.432Z,7.20
2023-04-28T17:43:52.930Z,9.40
2023-04-28T17:47:21.080Z,22.70
2023-04-28T17:50:49.395Z,58.20
2023-04-28T17:54:17.058Z,19.60
2023-04-28T17:57:45.356Z,10.30
2023-04-28T18:01:15.610Z,9.50
2023-04-28T18:04:52.796Z,11.10
2023-04-28T18:08:25.975Z,11.40
2023-04-28T18:11:57.081Z,12.40
2023-04-28T18:15:25.467Z,12.00
2023-04-28T18:18:55.327Z,11.70
2023-04-28T18:25:49.577Z,9.70
2023-04-28T18:29:20.726Z,11.60
2023-04-28T18:36:17.108Z,12.40
2023-04-28T18:39:45.213Z,10.70
2023-04-28T18:43:14.502Z,11.60
2023-04-28T18:46:41.848Z,15.40
2023-04-28T18:50:10.832Z,18.10
2023-04-28T18:53:38.640Z,20.80
2023-04-28T18:57:06.829Z,15.50
2023-04-28T19:00:37.298Z,13.80
2023-04-28T19:04:05.605Z,13.80
2023-04-28T19:07:34.319Z,12.60
2023-04-28T19:11:02.152Z,13.20
2023-04-28T19:14:29.511Z,12.70
2023-04-28T19:17:57.263Z,13.00
2023-04-28T19:21:27.072Z,13.20
2023-04-28T19:24:55.028Z,11.00
2023-04-28T19:28:22.988Z,11.20
2023-04-28T19:31:50.701Z,23.40
2023-04-28T19:35:17.644Z,35.60
2023-04-28T19:38:44.478Z,23.80
2023-04-28T19:42:11.637Z,16.40
2023-04-28T19:45:38.601Z,12.80
2023-04-28T19:49:05.634Z,23.30
2023-04-28T19:52:33.102Z,31.60
2023-04-28T19:56:02.047Z,23.30
2023-04-28T19:59:29.367Z,13.50
2023-04-28T20:02:56.597Z,12.30
2023-04-28T20:06:23.685Z,13.10
2023-04-28T20:09:52.817Z,12.00
2023-04-28T20:13:19.817Z,13.80
2023-04-28T20:16:46.808Z,13.50
2023-04-28T20:20:14.492Z,12.70
2023-04-28T20:23:41.858Z,11.10
2023-04-28T20:27:09.775Z,13.30
2023-04-28T20:30:36.809Z,15.20
2023-04-28T20:34:04.320Z,15.80
2023-04-28T20:37:32.132Z,17.20
2023-04-28T20:40:59.514Z,16.60
2023-04-28T20:44:26.461Z,15.50
2023-04-28T20:47:55.961Z,14.00
2023-04-28T20:51:24.265Z,13.90
2023-04-28T20:54:52.248Z,15.50
2023-04-28T20:58:19.293Z,16.50
2023-04-28T21:01:46.217Z,14.40
2023-04-28T21:05:13.792Z,15.40
2023-04-28T21:08:41.933Z,14.40
2023-04-28T21:12:09.623Z,13.40
2023-04-28T21:15:41.732Z,15.20
2023-04-28T21:19:09.333Z,14.30
2023-04-28T21:22:36.829Z,14.40
2023-04-28T21:26:03.859Z,15.50
2023-04-28T21:29:30.728Z,15.10
2023-04-28T21:32:58.093Z,15.90
2023-04-28T21:36:25.112Z,15.60
2023-04-28T21:39:52.298Z,14.60
2023-04-28T21:43:20.149Z,16.20
2023-04-28T21:46:47.750Z,16.60
2023-04-28T21:50:14.785Z,16.80
2023-04-28T21:53:41.978Z,16.90
2023-04-28T21:57:09.153Z,18.00
2023-04-28T22:00:40.263Z,17.20
2023-04-28T22:04:08.935Z,16.20
2023-04-28T22:07:36.242Z,15.90
2023-04-28T22:11:03.983Z,15.40
2023-04-28T22:21:26.554Z,16.20
2023-04-28T22:24:53.559Z,15.80
2023-04-28T22:28:20.564Z,16.60
2023-04-28T22:31:47.875Z,16.90
2023-04-28T22:35:16.620Z,16.10
2023-04-28T22:38:43.723Z,17.10
2023-04-28T22:42:11.040Z,19.70
2023-04-28T22:45:37.789Z,24.80
2023-04-28T22:49:04.931Z,20.60
2023-04-28T22:52:31.799Z,19.80
2023-04-28T22:56:02.940Z,17.90
2023-04-28T22:59:30.012Z,18.00
2023-04-28T23:02:57.060Z,19.50
2023-04-28T23:06:24.985Z,18.80
2023-04-28T23:09:52.263Z,18.10
2023-04-28T23:13:19.362Z,19.00
2023-04-28T23:16:46.565Z,19.90
2023-04-28T23:20:15.092Z,19.40
2023-04-28T23:23:42.114Z,19.20
2023-04-28T23:27:09.164Z,18.70
2023-04-28T23:30:36.441Z,19.10
2023-04-28T23:34:05.187Z,19.40
2023-04-28T23:37:32.851Z,19.00
2023-04-28T23:40:59.766Z,19.40
2023-04-28T23:44:26.693Z,19.50
2023-04-28T23:47:53.922Z,18.60
2023-04-28T23:51:21.586Z,19.70
2023-04-28T23:54:48.556Z,18.60
2023-04-28T23:58:15.321Z,19.10
